Time;durP1;ratioP1;P1;durP2;ratioP2;P2;SDS_P1;SDS_P2;PMS_P1;PMS_P2;Temp;Humidity;BMP_temperature;BMP_pressure;BME280_temperature;BME280_humidity;BME280_pressure;Samples;Min_cycle;Max_cycle;Signal;HPM_P1;HPM_P2
2023/08/24 00:01:36;;;;;;;7.95;2.15;;;;;;;14.31;100.00;100468.56;5014036;28;20478;-90
2023/08/24 00:04:02;;;;;;;3.58;1.73;;;;;;;14.29;100.00;100457.25;5017292;28;20045;-90
2023/08/24 00:06:28;;;;;;;5.60;1.80;;;;;;;14.27;100.00;100463.59;5023761;28;20037;-90
2023/08/24 00:08:54;;;;;;;6.65;2.28;;;;;;;14.25;100.00;100456.78;5012999;28;20052;-89
2023/08/24 00:11:20;;;;;;;9.10;1.85;;;;;;;14.21;100.00;100450.97;5044212;28;20042;-89
2023/08/24 00:13:52;;;;;;;6.80;1.38;;;;;;;14.19;100.00;100447.63;5029907;28;20694;-89
2023/08/24 00:16:19;;;;;;;7.75;1.40;;;;;;;14.20;100.00;100444.00;5033025;28;20025;-90
2023/08/24 00:18:45;;;;;;;4.68;1.90;;;;;;;14.13;100.00;100441.19;5029670;28;20037;-90
2023/08/24 00:21:16;;;;;;;5.90;2.00;;;;;;;14.14;100.00;100440.16;5031575;28;20377;-90
2023/08/24 00:23:43;;;;;;;5.93;1.55;;;;;;;14.14;100.00;100434.84;5034662;28;21047;-90
2023/08/24 00:26:09;;;;;;;6.05;1.70;;;;;;;14.19;100.00;100437.00;5046634;28;20102;-90
2023/08/24 00:28:35;;;;;;;7.57;1.48;;;;;;;14.20;100.00;100436.03;5013457;28;20448;-89
2023/08/24 00:31:01;;;;;;;6.43;1.77;;;;;;;14.20;100.00;100451.97;5043345;28;20033;-90
2023/08/24 00:33:27;;;;;;;7.07;1.90;;;;;;;14.19;100.00;100446.81;5025851;28;20033;-90
2023/08/24 00:35:58;;;;;;;8.75;2.17;;;;;;;14.18;100.00;100453.13;5030500;28;20029;-90
2023/08/24 00:38:24;;;;;;;8.88;2.45;;;;;;;14.22;100.00;100463.25;5046367;28;20246;-90
2023/08/24 00:40:52;;;;;;;9.23;2.10;;;;;;;14.26;100.00;100447.81;5047869;28;20116;-90
2023/08/24 00:43:22;;;;;;;10.30;1.70;;;;;;;14.23;100.00;100448.13;5046702;28;20041;-90
2023/08/24 00:45:50;;;;;;;7.20;1.90;;;;;;;14.23;100.00;100446.31;5030414;28;20033;-90
2023/08/24 00:48:17;;;;;;;7.70;1.92;;;;;;;14.26;100.00;100437.16;5031026;28;20036;-90
2023/08/24 00:50:43;;;;;;;4.78;1.65;;;;;;;14.29;100.00;100422.69;5034396;28;20519;-90
2023/08/24 00:53:10;;;;;;;5.47;1.20;;;;;;;14.31;100.00;100418.03;5008136;28;20060;-90
2023/08/24 00:55:36;;;;;;;12.48;2.05;;;;;;;14.34;100.00;100415.03;5040644;28;20081;-90
2023/08/24 00:58:03;;;;;;;5.97;1.40;;;;;;;14.37;100.00;100423.53;5046743;28;20117;-91
2023/08/24 01:00:29;;;;;;;7.80;1.83;;;;;;;14.39;100.00;100424.19;5046757;28;20048;-90
2023/08/24 01:02:55;;;;;;;10.35;1.80;;;;;;;14.41;100.00;100431.16;5013592;28;20025;-90
2023/08/24 01:05:21;;;;;;;9.75;1.50;;;;;;;14.40;100.00;100419.69;5005209;28;20065;-90
2023/08/24 01:07:47;;;;;;;7.03;1.52;;;;;;;14.40;100.00;100425.00;4988628;28;20064;-89
2023/08/24 01:10:13;;;;;;;7.03;1.63;;;;;;;14.41;100.00;100429.34;5050363;28;20045;-90
2023/08/24 01:12:48;;;;;;;7.13;1.35;;;;;;;14.45;100.00;100429.81;5035371;28;20042;-90
2023/08/24 01:15:36;;;;;;;7.78;1.80;;;;;;;14.44;100.00;100421.03;5031145;28;20481;-91
2023/08/24 01:18:05;;;;;;;10.77;1.83;;;;;;;14.43;100.00;100432.63;5030328;28;20033;-90
2023/08/24 01:20:33;;;;;;;5.28;1.52;;;;;;;14.36;100.00;100418.38;5047725;28;20407;-90
2023/08/24 01:23:20;;;;;;;5.15;1.77;;;;;;;14.29;100.00;100426.19;5030992;28;20029;-90
2023/08/24 01:25:52;;;;;;;7.32;2.35;;;;;;;14.20;100.00;100433.38;5062164;28;20029;-88
2023/08/24 01:28:20;;;;;;;6.80;1.77;;;;;;;14.19;100.00;100433.53;5027530;28;20068;-90
2023/08/24 01:30:46;;;;;;;4.90;1.42;;;;;;;14.15;100.00;100425.06;5030977;28;20038;-91
2023/08/24 01:33:13;;;;;;;10.15;1.73;;;;;;;14.12;100.00;100420.91;5031680;28;20048;-90
2023/08/24 01:35:39;;;;;;;7.32;2.20;;;;;;;14.11;100.00;100421.91;5044855;28;20034;-90
2023/08/24 01:38:06;;;;;;;4.95;1.55;;;;;;;14.10;100.00;100428.22;5041899;28;20033;-90
2023/08/24 01:40:50;;;;;;;4.55;1.45;;;;;;;14.10;100.00;100430.88;5032089;28;20043;-90
2023/08/24 01:43:20;;;;;;;8.57;1.60;;;;;;;14.06;100.00;100428.72;5032314;28;20040;-90
2023/08/24 01:45:47;;;;;;;3.80;1.58;;;;;;;14.05;100.00;100427.06;5021267;28;20370;-90
2023/08/24 01:48:13;;;;;;;4.50;1.63;;;;;;;14.05;100.00;100422.56;5033400;28;20037;-90
2023/08/24 01:50:41;;;;;;;7.82;1.75;;;;;;;14.05;100.00;100424.41;5032846;28;20167;-90
2023/08/24 01:53:07;;;;;;;9.85;2.03;;;;;;;14.04;100.00;100415.59;5047419;28;20057;-90
2023/08/24 01:55:33;;;;;;;5.47;1.92;;;;;;;14.06;100.00;100423.41;5028402;28;20037;-89
2023/08/24 01:58:00;;;;;;;5.10;1.50;;;;;;;14.06;100.00;100420.75;5024964;28;20034;-90
2023/08/24 02:00:26;;;;;;;6.72;1.90;;;;;;;14.05;100.00;100427.06;5039300;28;20037;-90
2023/08/24 02:02:52;;;;;;;4.90;1.83;;;;;;;14.01;100.00;100419.41;5033372;28;20018;-88
2023/08/24 02:05:18;;;;;;;4.05;1.98;;;;;;;13.99;100.00;100418.78;5020506;28;20068;-89
2023/08/24 02:07:49;;;;;;;7.05;1.80;;;;;;;13.99;100.00;100429.41;5025808;28;20034;-90
2023/08/24 02:10:15;;;;;;;9.57;1.70;;;;;;;14.01;100.00;100429.22;5050100;28;20409;-90
2023/08/24 02:12:41;;;;;;;5.63;1.63;;;;;;;13.99;100.00;100424.09;5017808;28;20446;-90
2023/08/24 02:15:08;;;;;;;8.93;1.52;;;;;;;14.06;100.00;100431.38;5034367;28;20029;-90
2023/08/24 02:17:36;;;;;;;4.28;1.38;;;;;;;14.07;100.00;100427.72;5051964;28;20120;-90
2023/08/24 02:20:03;;;;;;;9.82;1.83;;;;;;;14.09;100.00;100423.91;5017335;28;20395;-90
2023/08/24 02:22:30;;;;;;;5.75;1.73;;;;;;;14.13;100.00;100430.53;5021101;28;20029;-91
2023/08/24 02:24:56;;;;;;;6.55;1.42;;;;;;;14.14;100.00;100423.41;5032028;28;20037;-90
2023/08/24 02:27:22;;;;;;;4.03;1.38;;;;;;;14.18;100.00;100424.72;5017846;28;20025;-89
2023/08/24 02:29:50;;;;;;;4.22;1.27;;;;;;;14.25;100.00;100431.00;5029959;28;20076;-91
2023/08/24 02:32:16;;;;;;;7.85;1.48;;;;;;;14.31;100.00;100428.69;5032290;28;20474;-90
2023/08/24 02:34:42;;;;;;;4.57;1.42;;;;;;;14.33;100.00;100421.38;5032713;28;20049;-91
2023/08/24 02:37:08;;;;;;;9.77;1.63;;;;;;;14.32;100.00;100423.19;5032637;28;20029;-91
2023/08/24 02:39:34;;;;;;;4.70;0.93;;;;;;;14.33;100.00;100421.38;5033124;28;20532;-90
2023/08/24 02:42:00;;;;;;;6.25;1.20;;;;;;;14.32;100.00;100425.84;5011436;28;20034;-91
2023/08/24 02:44:26;;;;;;;5.68;1.10;;;;;;;14.33;100.00;100426.69;5016970;28;20099;-90
2023/08/24 02:46:54;;;;;;;7.43;1.10;;;;;;;14.36;100.00;100424.53;5032275;28;20091;-90
2023/08/24 02:49:20;;;;;;;5.22;1.58;;;;;;;14.34;100.00;100417.69;5033323;28;20544;-90
2023/08/24 02:51:46;;;;;;;4.70;1.15;;;;;;;14.36;100.00;100419.22;5048653;28;20042;-90
2023/08/24 02:54:12;;;;;;;5.30;1.15;;;;;;;14.36;100.00;100429.00;5012805;28;20628;-90
2023/08/24 02:56:38;;;;;;;6.07;1.27;;;;;;;14.34;100.00;100420.38;5045463;28;20044;-90
2023/08/24 02:59:04;;;;;;;5.05;1.10;;;;;;;14.35;100.00;100422.84;5049245;28;20029;-90
2023/08/24 03:01:29;;;;;;;4.53;1.40;;;;;;;14.33;100.00;100424.03;5015604;28;20037;-90
2023/08/24 03:03:55;;;;;;;4.47;1.10;;;;;;;14.30;100.00;100429.69;5023878;28;20029;-90
2023/08/24 03:06:23;;;;;;;5.72;1.38;;;;;;;14.21;100.00;100434.16;5031518;28;20033;-91
2023/08/24 03:08:50;;;;;;;6.90;1.35;;;;;;;14.07;100.00;100431.22;5028763;28;20132;-91
2023/08/24 03:11:15;;;;;;;6.63;1.50;;;;;;;13.92;100.00;100431.03;5053467;28;20033;-90
2023/08/24 03:13:41;;;;;;;6.25;1.55;;;;;;;13.71;100.00;100419.09;5013894;28;20170;-90
2023/08/24 03:16:08;;;;;;;4.95;1.52;;;;;;;13.63;100.00;100419.09;5048876;28;20037;-90
2023/08/24 03:18:35;;;;;;;4.22;1.45;;;;;;;13.51;100.00;100414.13;5032646;28;20026;-91
2023/08/24 03:21:03;;;;;;;7.82;1.45;;;;;;;13.59;100.00;100420.41;5031717;28;20151;-90
2023/08/24 03:23:29;;;;;;;4.20;1.45;;;;;;;13.59;100.00;100413.28;5033567;28;20160;-90
2023/08/24 03:25:55;;;;;;;3.05;1.33;;;;;;;13.63;100.00;100425.22;5023262;28;20037;-90
2023/08/24 03:28:21;;;;;;;5.40;1.75;;;;;;;13.65;100.00;100422.41;5049138;28;20033;-90
2023/08/24 03:30:48;;;;;;;4.07;1.60;;;;;;;13.55;100.00;100419.09;5023477;28;20034;-91
2023/08/24 03:33:15;;;;;;;9.52;1.63;;;;;;;13.51;100.00;100418.59;5031446;28;20048;-90
2023/08/24 03:35:40;;;;;;;7.60;2.38;;;;;;;13.49;100.00;100420.56;5047834;28;20037;-90
2023/08/24 03:38:07;;;;;;;2.28;1.20;;;;;;;13.47;100.00;100417.25;5024244;28;20120;-90
2023/08/24 03:40:33;;;;;;;4.07;1.83;;;;;;;13.45;100.00;100420.06;5010992;28;20184;-91
2023/08/24 03:43:01;;;;;;;6.90;1.15;;;;;;;13.49;100.00;100420.56;5039269;28;20036;-91
2023/08/24 03:45:27;;;;;;;4.13;1.25;;;;;;;13.51;100.00;100414.13;5031336;28;20060;-90
2023/08/24 03:47:53;;;;;;;3.92;1.35;;;;;;;13.55;100.00;100416.44;5038252;28;20463;-89
2023/08/24 03:50:19;;;;;;;6.32;1.23;;;;;;;13.59;100.00;100415.09;5044623;28;20064;-91
2023/08/24 03:52:45;;;;;;;1.30;1.20;;;;;;;13.58;100.00;100424.06;5056812;28;20041;-90
2023/08/24 03:55:11;;;;;;;4.65;1.50;;;;;;;13.57;100.00;100414.47;5031596;28;20132;-90
2023/08/24 03:57:37;;;;;;;5.18;1.35;;;;;;;13.57;100.00;100409.97;5046928;28;20068;-91
2023/08/24 04:00:07;;;;;;;4.43;1.85;;;;;;;13.59;100.00;100418.59;5048249;28;20084;-90
2023/08/24 04:02:41;;;;;;;7.00;1.33;;;;;;;13.59;100.00;100412.44;5046639;28;20025;-91
2023/08/24 04:05:07;;;;;;;8.30;1.40;;;;;;;13.59;100.00;100421.25;5028601;28;20080;-91
2023/08/24 04:07:36;;;;;;;5.13;1.50;;;;;;;13.59;100.00;100412.44;5045698;28;20104;-90
2023/08/24 04:10:04;;;;;;;4.22;1.10;;;;;;;13.57;100.00;100425.09;5017721;28;20056;-90
2023/08/24 04:12:31;;;;;;;3.40;1.20;;;;;;;13.50;100.00;100420.44;5043085;28;20377;-90
2023/08/24 04:14:57;;;;;;;5.95;1.25;;;;;;;13.47;100.00;100419.91;5047412;28;20397;-90
2023/08/24 04:17:24;;;;;;;4.43;1.20;;;;;;;13.35;100.00;100412.25;4986068;28;20116;-90
2023/08/24 04:19:50;;;;;;;3.35;1.10;;;;;;;13.31;100.00;100418.03;5043469;28;20493;-90
2023/08/24 04:22:15;;;;;;;5.20;1.38;;;;;;;13.27;100.00;100417.53;5019711;28;20029;-90
2023/08/24 04:24:41;;;;;;;3.95;0.80;;;;;;;13.22;100.00;100414.53;5014676;28;20038;-91
2023/08/24 04:27:07;;;;;;;1.73;0.98;;;;;;;13.19;100.00;100402.41;5031819;28;20041;-90
2023/08/24 04:29:33;;;;;;;4.15;0.95;;;;;;;13.15;100.00;100409.06;5044576;28;20041;-91
2023/08/24 04:31:59;;;;;;;7.20;1.27;;;;;;;13.15;100.00;100414.34;5001881;28;20514;-91
2023/08/24 04:34:26;;;;;;;1.20;0.80;;;;;;;13.09;100.00;100415.00;5030788;28;20087;-90
2023/08/24 04:36:52;;;;;;;2.95;0.90;;;;;;;13.02;100.00;100422.78;5029059;28;20120;-90
2023/08/24 04:39:18;;;;;;;2.97;1.20;;;;;;;12.97;100.00;100410.00;5014191;28;20034;-91
2023/08/24 04:41:44;;;;;;;77.75;1.80;;;;;;;12.95;100.00;100414.63;5015213;28;20062;-90
2023/08/24 04:44:10;;;;;;;4.00;0.43;;;;;;;12.89;100.00;100412.63;5032123;28;20091;-91
2023/08/24 04:46:35;;;;;;;1.17;0.50;;;;;;;12.85;100.00;100413.94;5031680;28;20064;-90
2023/08/24 04:49:01;;;;;;;1.92;0.82;;;;;;;12.84;100.00;100412.25;5026773;28;20065;-90
2023/08/24 04:51:27;;;;;;;1.67;1.08;;;;;;;12.81;100.00;100420.53;5025421;28;20088;-91
2023/08/24 04:53:54;;;;;;;3.47;0.88;;;;;;;12.80;100.00;100419.72;5028085;28;20033;-90
2023/08/24 04:56:20;;;;;;;3.38;1.10;;;;;;;12.77;100.00;100418.19;5042408;28;20037;-91
2023/08/24 04:58:54;;;;;;;2.13;0.70;;;;;;;12.75;100.00;100416.72;4999157;28;20034;-91
2023/08/24 05:01:20;;;;;;;5.25;0.93;;;;;;;12.67;100.00;100422.81;5020812;28;20040;-91
2023/08/24 05:03:45;;;;;;;5.63;0.98;;;;;;;12.64;100.00;100426.63;5030413;28;20410;-90
2023/08/24 05:06:11;;;;;;;2.63;0.80;;;;;;;12.67;100.00;100427.28;5011551;28;20084;-91
2023/08/24 05:08:37;;;;;;;1.90;1.10;;;;;;;12.63;100.00;100430.25;5059354;28;20054;-91
2023/08/24 05:11:14;;;;;;;1.85;1.00;;;;;;;12.67;100.00;100421.97;5025911;28;20033;-91
2023/08/24 05:13:43;;;;;;;3.72;1.33;;;;;;;12.67;100.00;100424.63;5030309;28;20044;-91
2023/08/24 05:16:09;;;;;;;2.17;1.08;;;;;;;12.57;100.00;100422.09;5032269;28;20044;-90
2023/08/24 05:18:36;;;;;;;1.77;0.73;;;;;;;12.50;100.00;100422.72;5021399;28;20084;-91
2023/08/24 05:21:03;;;;;;;5.65;1.20;;;;;;;12.51;100.00;100413.78;5046023;28;20045;-92
2023/08/24 05:23:30;;;;;;;3.85;1.13;;;;;;;12.46;100.00;100416.06;5031955;28;20508;-92
2023/08/24 05:26:00;;;;;;;4.60;1.73;;;;;;;12.43;100.00;100423.50;5041504;28;20038;-91
2023/08/24 05:28:27;;;;;;;3.47;1.00;;;;;;;12.41;100.00;100421.00;5002860;28;20389;-91
2023/08/24 05:30:53;;;;;;;4.25;1.23;;;;;;;12.43;100.00;100420.84;5014659;28;20029;-91
2023/08/24 05:33:20;;;;;;;4.13;1.23;;;;;;;12.42;100.00;100424.50;5051981;28;20034;-92
2023/08/24 05:35:50;;;;;;;12.75;1.15;;;;;;;12.35;100.00;100419.84;5002271;28;20052;-91
2023/08/24 05:38:16;;;;;;;1.40;0.93;;;;;;;12.32;100.00;100422.78;5019011;28;20114;-91
2023/08/24 05:40:49;;;;;;;1.17;0.68;;;;;;;12.39;100.00;100426.47;5051000;28;20099;-92
2023/08/24 05:43:15;;;;;;;1.08;0.50;;;;;;;12.40;100.00;100429.97;5067956;28;20109;-92
2023/08/24 05:45:43;;;;;;;2.65;0.60;;;;;;;12.41;100.00;100436.91;5033980;28;20525;-92
2023/08/24 05:48:09;;;;;;;3.20;0.70;;;;;;;12.47;100.00;100436.28;5018482;28;20052;-91
2023/08/24 05:50:37;;;;;;;5.15;0.70;;;;;;;12.49;100.00;100442.28;5034363;28;20044;-92
2023/08/24 05:53:03;;;;;;;5.18;0.80;;;;;;;12.54;100.00;100444.44;5021531;28;20068;-91
2023/08/24 05:55:29;;;;;;;1.50;0.50;;;;;;;12.59;100.00;100449.28;5050916;28;20048;-91
2023/08/24 05:57:55;;;;;;;4.13;0.82;;;;;;;12.58;100.00;100439.66;4999892;28;20385;-91
2023/08/24 06:00:22;;;;;;;3.72;0.77;;;;;;;12.53;100.00;100440.16;5036995;28;20033;-92
2023/08/24 06:02:48;;;;;;;2.53;0.77;;;;;;;12.52;100.00;100435.81;5059430;28;20025;-91
2023/08/24 06:05:14;;;;;;;5.57;1.60;;;;;;;12.57;100.00;100445.94;5033603;28;20033;-91
2023/08/24 06:07:39;;;;;;;3.05;0.82;;;;;;;12.60;100.00;100451.78;5034699;28;20048;-91
2023/08/24 06:10:06;;;;;;;2.38;0.65;;;;;;;12.59;100.00;100441.31;5033152;28;20068;-90
2023/08/24 06:12:32;;;;;;;4.30;0.70;;;;;;;12.59;100.00;100444.81;5050493;28;20083;-92
2023/08/24 06:14:58;;;;;;;3.13;0.80;;;;;;;12.55;100.00;100438.16;5035641;28;20022;-91
2023/08/24 06:17:24;;;;;;;5.57;1.23;;;;;;;12.57;100.00;100441.47;5066000;28;20034;-91
2023/08/24 06:19:50;;;;;;;2.17;0.73;;;;;;;12.58;100.00;100445.78;5014093;28;20037;-91
2023/08/24 06:22:15;;;;;;;0.52;0.40;;;;;;;12.47;100.00;100441.59;5015963;28;20501;-92
2023/08/24 06:24:41;;;;;;;4.03;0.85;;;;;;;12.40;100.00;100443.22;5002689;28;20112;-92
2023/08/24 06:27:07;;;;;;;0.82;0.68;;;;;;;12.35;100.00;100446.34;5050118;28;20033;-92
2023/08/24 06:29:33;;;;;;;1.08;0.60;;;;;;;12.26;100.00;100442.78;5033590;28;20091;-91
2023/08/24 06:31:59;;;;;;;3.17;0.57;;;;;;;12.25;100.00;100446.44;5050122;28;20124;-92
2023/08/24 06:34:24;;;;;;;2.03;0.45;;;;;;;12.27;100.00;100447.13;5025661;28;20085;-90
2023/08/24 06:36:50;;;;;;;2.53;1.02;;;;;;;12.33;100.00;100436.84;5032725;28;20033;-91
2023/08/24 06:39:16;;;;;;;6.90;1.85;;;;;;;12.44;100.00;100439.25;5034153;28;20033;-92
2023/08/24 06:41:42;;;;;;;6.18;1.10;;;;;;;12.52;100.00;100441.13;5032715;28;20038;-91
2023/08/24 06:44:08;;;;;;;3.17;1.00;;;;;;;12.61;100.00;100442.00;5022247;28;20033;-92
2023/08/24 06:46:34;;;;;;;6.97;1.42;;;;;;;12.68;100.00;100435.06;5033052;28;20032;-92
2023/08/24 06:49:00;;;;;;;4.45;0.70;;;;;;;12.75;100.00;100436.13;5032623;28;20062;-92
2023/08/24 06:51:28;;;;;;;2.60;0.60;;;;;;;12.82;100.00;100436.28;5041902;28;20037;-92
2023/08/24 06:53:53;;;;;;;4.30;0.77;;;;;;;12.89;100.00;100426.72;5032605;28;20036;-90
2023/08/24 06:56:19;;;;;;;2.97;1.02;;;;;;;12.95;100.00;100430.53;5023687;28;20029;-91
2023/08/24 06:58:47;;;;;;;3.05;0.90;;;;;;;12.99;100.00;100437.19;5050095;28;20044;-92
2023/08/24 07:01:13;;;;;;;2.40;1.00;;;;;;;13.05;100.00;100441.03;5013538;28;20029;-92
2023/08/24 07:03:39;;;;;;;8.32;1.17;;;;;;;13.11;100.00;100442.19;5051081;28;20045;-91
2023/08/24 07:06:08;;;;;;;5.50;1.55;;;;;;;13.18;100.00;100443.22;5028779;28;20033;-91
2023/08/24 07:08:34;;;;;;;7.25;1.48;;;;;;;13.18;100.00;100443.22;5048031;28;20064;-91
2023/08/24 07:11:01;;;;;;;11.55;1.52;;;;;;;13.24;100.00;100433.78;5012105;28;20152;-91
2023/08/24 07:13:27;;;;;;;13.07;1.50;;;;;;;13.27;100.00;100422.84;5043328;28;20044;-91
2023/08/24 07:15:55;;;;;;;7.10;1.65;;;;;;;13.31;100.00;100421.53;4999258;28;20036;-91
2023/08/24 07:18:21;;;;;;;2.58;1.15;;;;;;;13.37;100.00;100425.34;5015450;28;20489;-92
2023/08/24 07:24:29;;;;;;;2.75;1.08;;;;;;;13.58;100.00;100434.69;5047389;28;20489;-92
2023/08/24 07:26:55;;;;;;;4.55;0.90;;;;;;;13.74;100.00;100425.91;5048530;28;20477;-92
2023/08/24 07:29:21;;;;;;;5.80;1.20;;;;;;;13.91;100.00;100423.25;5048910;28;20104;-92
2023/08/24 07:31:47;;;;;;;9.63;0.82;;;;;;;14.11;100.00;100426.41;5061035;28;20041;-92
2023/08/24 07:34:15;;;;;;;5.30;1.15;;;;;;;14.22;100.00;100418.06;5013815;28;20477;-92
2023/08/24 07:36:42;;;;;;;4.43;1.27;;;;;;;14.25;100.00;100417.72;5029425;28;20080;-91
2023/08/24 07:39:08;;;;;;;9.60;0.80;;;;;;;14.25;100.00;100416.91;5053249;28;20036;-90
2023/08/24 07:41:34;;;;;;;4.03;0.85;;;;;;;14.19;100.00;100417.59;4998183;28;20480;-91
2023/08/24 07:43:59;;;;;;;10.70;1.25;;;;;;;14.12;100.00;100418.25;5016420;28;20029;-91
2023/08/24 07:46:25;;;;;;;2.80;0.98;;;;;;;14.15;100.00;100409.09;5032477;28;20037;-91
2023/08/24 07:48:51;;;;;;;7.03;0.90;;;;;;;14.20;100.00;100406.78;5032082;28;20041;-91
2023/08/24 07:51:17;;;;;;;5.05;1.02;;;;;;;14.28;100.00;100403.28;5031201;28;20025;-92
2023/08/24 07:53:43;;;;;;;3.85;0.85;;;;;;;14.25;100.00;100399.09;4975508;28;20033;-88
2023/08/24 07:56:10;;;;;;;8.85;1.10;;;;;;;14.24;100.00;100386.81;4994113;28;20037;-91
2023/08/24 07:58:36;;;;;;;6.05;1.00;;;;;;;14.29;100.00;100391.63;5048137;28;20152;-91
2023/08/24 08:01:02;;;;;;;7.53;1.15;;;;;;;14.33;100.00;100389.47;5032043;28;20481;-91
2023/08/24 08:03:29;;;;;;;6.43;1.15;;;;;;;14.30;100.00;100390.63;5046608;28;20443;-91
2023/08/24 08:05:55;;;;;;;4.70;0.77;;;;;;;14.34;100.00;100388.47;5015037;28;20082;-91
2023/08/24 08:08:21;;;;;;;9.13;1.20;;;;;;;14.39;100.00;100391.44;5047248;28;20122;-90
2023/08/24 08:10:47;;;;;;;4.25;0.93;;;;;;;14.47;100.00;100390.59;5014744;28;20029;-91
2023/08/24 08:13:13;;;;;;;5.47;0.80;;;;;;;14.54;100.00;100391.53;5031613;28;20026;-91
2023/08/24 08:15:39;;;;;;;3.90;0.90;;;;;;;14.58;100.00;100392.03;5048802;28;20048;-91
2023/08/24 08:18:08;;;;;;;6.35;0.90;;;;;;;14.61;100.00;100381.06;5032694;28;20036;-91
2023/08/24 08:20:34;;;;;;;5.30;0.93;;;;;;;14.61;100.00;100394.34;5032228;28;20120;-90
2023/08/24 08:23:00;;;;;;;5.57;1.58;;;;;;;14.58;100.00;100398.19;5045608;28;20037;-91
2023/08/24 08:25:26;;;;;;;7.38;0.80;;;;;;;14.58;100.00;100392.03;5032413;28;20087;-90
2023/08/24 08:27:52;;;;;;;5.25;0.75;;;;;;;14.61;100.00;100383.72;5012105;28;20189;-92
2023/08/24 08:30:20;;;;;;;3.97;1.27;;;;;;;14.63;100.00;100389.69;5020332;28;20112;-90
2023/08/24 08:32:45;;;;;;;6.20;0.90;;;;;;;14.65;100.00;100390.38;5015532;28;20044;-90
2023/08/24 08:35:11;;;;;;;6.53;1.02;;;;;;;14.68;100.00;100391.84;5061321;28;20034;-91
2023/08/24 08:37:37;;;;;;;7.13;1.27;;;;;;;14.65;100.00;100387.72;5036899;28;20033;-90
2023/08/24 08:40:13;;;;;;;7.80;1.00;;;;;;;14.64;100.00;100378.03;5031778;28;20033;-91
2023/08/24 08:42:39;;;;;;;5.53;0.90;;;;;;;14.69;100.00;100386.34;5051882;28;20037;-90
2023/08/24 08:45:10;;;;;;;6.07;0.80;;;;;;;14.82;100.00;100390.31;5028891;28;20040;-90
2023/08/24 08:47:36;;;;;;;3.45;0.70;;;;;;;14.77;100.00;100382.81;5031501;28;20561;-90
2023/08/24 08:50:03;;;;;;;5.20;1.30;;;;;;;14.89;100.00;100391.28;5032685;28;20029;-90
2023/08/24 08:52:32;;;;;;;6.50;0.93;;;;;;;15.06;100.00;100386.69;5030403;28;20434;-91
2023/08/24 08:54:58;;;;;;;6.85;0.85;;;;;;;15.11;100.00;100379.00;5033155;28;20036;-90
2023/08/24 08:57:25;;;;;;;3.72;0.70;;;;;;;15.13;100.00;100392.13;5043167;28;20022;-90
2023/08/24 08:59:55;;;;;;;6.40;0.73;;;;;;;14.97;100.00;100385.91;5015287;28;20448;-89
2023/08/24 09:02:23;;;;;;;3.83;0.70;;;;;;;14.82;100.00;100392.97;5029599;28;20044;-90
2023/08/24 09:04:51;;;;;;;3.60;0.50;;;;;;;14.79;100.00;100393.28;5045851;28;20033;-90
2023/08/24 09:07:17;;;;;;;5.32;0.70;;;;;;;14.85;100.00;100390.78;5049387;28;20033;-89
2023/08/24 09:09:43;;;;;;;5.95;1.30;;;;;;;15.05;100.00;100390.34;5049849;28;20870;-89
2023/08/24 09:12:09;;;;;;;7.20;0.90;;;;;;;15.25;100.00;100379.25;5033954;28;20038;-89
2023/08/24 09:14:35;;;;;;;7.10;0.90;;;;;;;15.36;100.00;100370.84;5033587;28;20038;-89
2023/08/24 09:17:02;;;;;;;5.00;0.55;;;;;;;15.50;100.00;100377.22;5032097;28;20040;-90
2023/08/24 09:19:33;;;;;;;3.67;0.80;;;;;;;15.55;100.00;100378.53;5052882;28;20061;-90
2023/08/24 09:22:00;;;;;;;4.57;0.55;;;;;;;15.58;100.00;100386.16;5056419;28;20157;-88
2023/08/24 09:24:33;;;;;;;3.35;0.60;;;;;;;15.53;100.00;100380.56;5053471;28;20067;-90
2023/08/24 09:27:00;;;;;;;2.67;0.60;;;;;;;15.44;100.00;100385.09;5036943;28;20123;-88
2023/08/24 09:29:26;;;;;;;2.58;0.55;;;;;;;15.37;100.00;100379.66;5049735;28;20068;-90
2023/08/24 09:31:52;;;;;;;7.45;0.98;;;;;;;15.35;100.00;100382.50;5039850;28;20069;-90
2023/08/24 09:34:26;;;;;;;4.22;0.95;;;;;;;15.36;100.00;100384.16;5017348;28;20037;-89
2023/08/24 09:36:52;;;;;;;3.53;0.60;;;;;;;15.29;100.00;100379.72;5030102;28;20037;-90
2023/08/24 09:39:19;;;;;;;2.85;0.52;;;;;;;15.33;100.00;100381.03;5035671;28;20437;-89
2023/08/24 09:41:50;;;;;;;2.83;0.57;;;;;;;15.43;100.00;100380.78;4996805;28;20041;-89
2023/08/24 09:44:19;;;;;;;4.70;0.57;;;;;;;15.54;100.00;100379.53;5024415;28;20045;-89
2023/08/24 09:46:45;;;;;;;6.07;0.70;;;;;;;15.65;100.00;100383.63;5046885;28;20102;-89
2023/08/24 09:49:11;;;;;;;3.67;0.50;;;;;;;15.78;100.00;100385.66;5005337;28;20477;-89
2023/08/24 09:51:40;;;;;;;2.40;1.20;;;;;;;15.87;100.00;100381.91;5047893;28;20056;-90
2023/08/24 09:54:10;;;;;;;3.72;0.68;;;;;;;15.96;100.00;100377.31;5026246;28;20413;-90
2023/08/24 09:56:38;;;;;;;4.38;0.52;;;;;;;16.04;100.00;100376.47;5033086;28;20029;-89
2023/08/24 09:59:12;;;;;;;6.90;0.60;;;;;;;16.15;100.00;100375.19;5050875;28;20032;-89
2023/08/24 10:01:41;;;;;;;8.65;0.70;;;;;;;16.15;100.00;100372.53;5018416;28;20037;-89
2023/08/24 10:04:09;;;;;;;8.40;0.70;;;;;;;16.10;100.00;100371.22;5034199;28;20041;-90
2023/08/24 10:06:36;;;;;;;3.60;0.43;;;;;;;16.03;100.00;100377.47;5023673;28;20384;-90
2023/08/24 10:09:07;;;;;;;5.28;0.85;;;;;;;16.02;100.00;100379.31;5035324;28;20057;-90
2023/08/24 10:11:36;;;;;;;4.70;0.40;;;;;;;16.03;100.00;100380.97;5054159;28;20048;-90
2023/08/24 10:14:26;;;;;;;5.22;0.50;;;;;;;15.92;100.00;100376.88;5028940;28;20840;-90
2023/08/24 10:16:52;;;;;;;3.13;0.60;;;;;;;15.75;100.00;100377.03;5045442;28;20040;-89
2023/08/24 10:19:21;;;;;;;5.95;0.57;;;;;;;15.70;100.00;100373.25;5030931;28;20489;-90
2023/08/24 10:21:46;;;;;;;5.30;0.30;;;;;;;15.62;100.00;100366.16;5048684;28;20018;-90
2023/08/24 10:24:12;;;;;;;3.97;0.50;;;;;;;15.72;100.00;100360.56;5011025;28;20108;-89
2023/08/24 10:26:40;;;;;;;1.90;0.35;;;;;;;15.86;100.00;100365.09;5044855;28;20104;-90
2023/08/24 10:29:06;;;;;;;0.93;0.30;;;;;;;15.96;100.00;100356.00;5056187;28;20490;-89
2023/08/24 10:31:33;;;;;;;2.17;0.30;;;;;;;16.09;100.00;100356.25;5001459;28;20048;-89
2023/08/24 10:34:00;;;;;;;6.75;0.30;;;;;;;16.30;100.00;100348.50;5034194;28;20033;-89
2023/08/24 10:36:26;;;;;;;3.47;0.80;;;;;;;16.44;100.00;100345.00;5050678;28;20159;-90
2023/08/24 10:38:59;;;;;;;5.78;0.60;;;;;;;16.56;100.00;100349.88;5032857;28;20025;-89
2023/08/24 10:41:27;;;;;;;13.80;0.40;;;;;;;16.52;100.00;100343.25;5034055;28;20037;-90
2023/08/24 10:44:05;;;;;;;2.63;0.25;;;;;;;16.27;100.00;100341.72;5040217;28;20030;-89
2023/08/24 10:46:35;;;;;;;2.67;0.20;;;;;;;16.14;100.00;100346.84;5047426;28;20040;-90
2023/08/24 10:49:04;;;;;;;3.70;0.47;;;;;;;16.12;100.00;100339.88;5011413;28;20042;-90
2023/08/24 10:51:31;;;;;;;5.03;0.77;;;;;;;16.17;100.00;100336.66;5028800;28;20033;-89
2023/08/24 10:53:59;;;;;;;2.80;0.30;;;;;;;16.35;100.00;100332.78;4996358;28;20799;-90
2023/08/24 10:56:38;;;;;;;1.92;0.60;;;;;;;16.52;100.00;100332.56;5019494;28;20128;-89
2023/08/24 10:59:17;;;;;;;2.50;0.38;;;;;;;16.65;100.00;100335.41;5011153;28;20037;-89
2023/08/24 11:02:04;;;;;;;5.07;0.40;;;;;;;16.69;100.00;100331.34;5046638;28;20052;-90
2023/08/24 11:04:30;;;;;;;2.05;0.40;;;;;;;16.65;100.00;100335.41;5034664;28;20100;-90
2023/08/24 11:07:02;;;;;;;2.80;0.35;;;;;;;16.66;100.00;100334.38;5037036;28;20026;-87
2023/08/24 11:09:48;;;;;;;2.35;0.40;;;;;;;16.60;100.00;100324.47;5035366;28;20057;-89
2023/08/24 11:12:14;;;;;;;4.32;0.68;;;;;;;16.61;100.00;100329.59;5007673;28;20103;-87
2023/08/24 11:15:01;;;;;;;2.78;0.38;;;;;;;16.66;100.00;100329.03;5028369;28;20085;-89
2023/08/24 11:17:33;;;;;;;3.72;0.40;;;;;;;16.78;100.00;100321.41;5032722;28;20394;-90
2023/08/24 11:20:00;;;;;;;3.97;0.30;;;;;;;16.85;100.00;100324.94;5014756;28;20040;-88
2023/08/24 11:22:27;;;;;;;4.10;0.40;;;;;;;16.92;100.00;100317.03;4999379;28;20033;-89